createdAt,value
2023-03-02T00:02:13.974Z,2.10
2023-03-02T00:04:54.560Z,2.10
2023-03-02T00:07:32.131Z,2.10
2023-03-02T00:10:05.647Z,2.00
2023-03-02T00:12:38.446Z,2.00
2023-03-02T00:15:11.216Z,2.00
2023-03-02T00:17:43.946Z,2.00
2023-03-02T00:20:16.745Z,1.90
2023-03-02T00:22:49.830Z,1.90
2023-03-02T00:25:22.665Z,1.90
2023-03-02T00:27:55.499Z,1.90
2023-03-02T00:30:28.148Z,1.90
2023-03-02T00:33:00.918Z,1.90
2023-03-02T00:35:41.320Z,1.90
2023-03-02T00:38:14.466Z,1.80
2023-03-02T00:40:49.047Z,1.80
2023-03-02T00:43:27.161Z,1.80
2023-03-02T00:45:59.812Z,1.70
2023-03-02T00:48:33.424Z,1.80
2023-03-02T00:51:07.238Z,1.80
2023-03-02T00:53:41.493Z,1.80
2023-03-02T00:56:14.408Z,1.70
2023-03-02T00:58:52.810Z,1.70
2023-03-02T01:01:25.566Z,1.70
2023-03-02T01:03:59.298Z,1.70
2023-03-02T01:06:32.496Z,1.70
2023-03-02T01:09:05.653Z,1.70
2023-03-02T01:11:38.717Z,1.70
2023-03-02T01:14:11.365Z,1.70
2023-03-02T01:16:44.568Z,1.70
2023-03-02T01:19:17.410Z,1.70
2023-03-02T01:21:50.111Z,1.70
2023-03-02T01:24:22.945Z,1.70
2023-03-02T01:26:55.830Z,1.70
2023-03-02T01:29:28.551Z,1.70
2023-03-02T01:32:01.496Z,1.70
2023-03-02T01:34:34.468Z,1.70
2023-03-02T01:37:07.135Z,1.60
2023-03-02T01:39:39.903Z,1.60
2023-03-02T01:42:12.867Z,1.60
2023-03-02T01:44:47.105Z,1.60
2023-03-02T01:47:26.705Z,1.60
2023-03-02T01:50:12.786Z,1.60
2023-03-02T01:52:47.375Z,1.60
2023-03-02T01:55:25.758Z,1.60
2023-03-02T01:58:01.801Z,1.60
2023-03-02T02:00:38.342Z,1.70
2023-03-02T02:03:15.716Z,1.70
2023-03-02T02:06:01.799Z,1.60
2023-03-02T02:08:34.663Z,1.60
2023-03-02T02:11:07.484Z,1.60
2023-03-02T02:13:40.583Z,1.60
2023-03-02T02:16:13.672Z,1.60
2023-03-02T02:18:46.548Z,1.60
2023-03-02T02:21:21.166Z,1.60
2023-03-02T02:24:14.950Z,1.50
2023-03-02T02:26:51.837Z,1.50
2023-03-02T02:29:34.863Z,1.50
2023-03-02T02:32:21.718Z,1.50
2023-03-02T02:35:05.409Z,1.50
2023-03-02T02:38:01.152Z,1.50
2023-03-02T02:40:44.714Z,1.50
2023-03-02T02:43:21.460Z,1.50
2023-03-02T02:45:57.002Z,1.50
2023-03-02T02:48:32.248Z,1.40
2023-03-02T02:51:09.085Z,1.40
2023-03-02T02:53:48.209Z,1.50
2023-03-02T02:56:20.929Z,1.50
2023-03-02T02:58:55.551Z,1.40
2023-03-02T03:01:28.971Z,1.40
2023-03-02T03:04:04.840Z,1.40
2023-03-02T03:06:53.270Z,1.40
2023-03-02T03:09:27.600Z,1.40
2023-03-02T03:12:19.930Z,1.40
2023-03-02T03:14:53.763Z,1.40
2023-03-02T03:17:26.477Z,1.40
2023-03-02T03:20:11.329Z,1.50
2023-03-02T03:22:48.774Z,1.40
2023-03-02T03:25:25.180Z,1.40
2023-03-02T03:27:58.112Z,1.40
2023-03-02T03:30:31.131Z,1.50
2023-03-02T03:33:03.976Z,1.40
2023-03-02T03:35:38.321Z,1.50
2023-03-02T20:13:48.085Z,5.70
2023-03-02T20:16:22.870Z,5.40
2023-03-02T20:18:57.837Z,5.30
2023-03-02T20:21:32.341Z,5.10
2023-03-02T20:24:05.775Z,5.00
2023-03-02T20:26:38.450Z,4.90
2023-03-02T20:29:15.289Z,4.80
2023-03-02T20:31:48.004Z,4.80
2023-03-02T20:34:21.351Z,4.70
2023-03-02T20:36:54.164Z,4.50
2023-03-02T20:39:31.464Z,4.50
2023-03-02T20:42:05.630Z,4.40
2023-03-02T20:44:38.570Z,4.30
2023-03-02T20:47:14.348Z,4.20
2023-03-02T20:49:47.142Z,4.10
2023-03-02T20:52:19.841Z,4.10
2023-03-02T20:54:53.001Z,4.10
2023-03-02T20:57:25.652Z,4.10
2023-03-02T20:59:58.815Z,4.20
2023-03-02T21:02:31.639Z,4.30
2023-03-02T21:05:05.154Z,4.40
2023-03-02T21:07:37.986Z,4.50
2023-03-02T21:10:16.687Z,4.50
2023-03-02T21:12:50.308Z,4.50
2023-03-02T21:15:23.892Z,4.30
2023-03-02T21:17:59.132Z,4.20
2023-03-02T21:20:33.843Z,4.20
2023-03-02T21:23:06.953Z,4.20
2023-03-02T21:25:42.208Z,4.20
2023-03-02T21:28:15.108Z,4.20
2023-03-02T21:30:47.830Z,4.30
2023-03-02T21:33:20.558Z,4.30
2023-03-02T21:35:53.312Z,4.30
2023-03-02T21:38:26.289Z,4.30
2023-03-02T21:40:58.994Z,4.30
2023-03-02T21:43:31.756Z,4.30
2023-03-02T21:46:04.678Z,4.30
2023-03-02T21:48:37.367Z,4.20
2023-03-02T21:51:11.685Z,4.10
2023-03-02T21:53:44.614Z,3.90
2023-03-02T21:56:20.555Z,3.80
2023-03-02T21:58:55.581Z,3.70
2023-03-02T22:01:29.759Z,3.60
2023-03-02T22:04:02.793Z,3.50
2023-03-02T22:06:35.654Z,3.40
